Time;durP1;ratioP1;P1;durP2;ratioP2;P2;SDS_P1;SDS_P2;PMS_P1;PMS_P2;Temp;Humidity;BMP_temperature;BMP_pressure;BME280_temperature;BME280_humidity;BME280_pressure;Samples;Min_cycle;Max_cycle;Signal;HPM_P1;HPM_P2
2023/04/18 00:02:06;;;;;;;3.97;0.93;;;27.40;99.90;;;;;;5112204;28;20218;-75
2023/04/18 00:04:33;;;;;;;4.77;1.13;;;27.40;99.90;;;;;;5112155;28;20193;-75
2023/04/18 00:07:01;;;;;;;3.85;1.13;;;27.60;99.90;;;;;;5111584;28;20178;-73
2023/04/18 00:09:29;;;;;;;5.10;0.93;;;28.10;99.90;;;;;;5112308;28;20171;-74
2023/04/18 00:11:57;;;;;;;4.70;0.83;;;28.20;99.90;;;;;;5113161;28;20645;-74
2023/04/18 00:14:25;;;;;;;3.13;0.83;;;28.20;99.90;;;;;;5113282;28;20171;-79
2023/04/18 00:16:52;;;;;;;3.43;0.77;;;28.30;99.90;;;;;;5119401;28;20178;-75
2023/04/18 00:19:21;;;;;;;3.60;0.63;;;28.50;99.90;;;;;;5113317;28;20179;-76
2023/04/18 00:21:48;;;;;;;2.53;0.77;;;28.20;99.90;;;;;;5112863;28;20294;-76
2023/04/18 00:24:16;;;;;;;3.75;1.00;;;28.10;99.90;;;;;;5113370;28;20167;-79
2023/04/18 00:26:44;;;;;;;4.97;0.80;;;28.40;99.90;;;;;;5113141;28;20674;-75
2023/04/18 00:29:11;;;;;;;3.40;1.13;;;28.40;99.90;;;;;;5113171;28;20626;-68
2023/04/18 00:31:39;;;;;;;5.18;0.70;;;28.30;99.90;;;;;;5113066;28;20182;-75
2023/04/18 00:34:07;;;;;;;6.70;1.35;;;28.70;99.90;;;;;;5112840;28;20178;-75
2023/04/18 00:36:34;;;;;;;3.10;0.60;;;28.80;99.90;;;;;;5112856;28;20262;-75
2023/04/18 00:39:02;;;;;;;2.25;0.77;;;28.90;99.90;;;;;;5112997;28;20167;-73
2023/04/18 00:41:30;;;;;;;2.90;0.60;;;29.10;95.80;;;;;;5112887;28;20270;-76
2023/04/18 00:43:58;;;;;;;1.70;0.70;;;29.10;99.50;;;;;;5112920;28;20212;-75
2023/04/18 00:46:26;;;;;;;2.85;0.90;;;29.10;96.50;;;;;;5112919;28;20186;-77
2023/04/18 00:48:54;;;;;;;2.80;0.90;;;28.90;96.30;;;;;;5097102;28;20180;-77
2023/04/18 00:51:22;;;;;;;3.45;0.80;;;29.60;92.50;;;;;;5098161;28;20202;-73
2023/04/18 00:53:50;;;;;;;3.20;1.07;;;28.10;94.40;;;;;;5092760;28;20722;-75
2023/04/18 00:56:18;;;;;;;10.00;1.10;;;27.00;98.10;;;;;;5099438;28;20174;-75
2023/04/18 00:58:46;;;;;;;3.57;0.87;;;25.90;99.90;;;;;;5112938;28;20182;-76
2023/04/18 01:01:13;;;;;;;2.23;0.80;;;25.30;99.90;;;;;;5115115;28;20301;-76
2023/04/18 01:03:41;;;;;;;5.10;0.80;;;25.00;99.90;;;;;;5114681;27;20611;-72
2023/04/18 01:06:09;;;;;;;2.80;0.93;;;24.50;99.90;;;;;;5109898;28;20178;-76
2023/04/18 01:08:37;;;;;;;6.23;1.20;;;24.30;99.90;;;;;;5115218;28;20167;-74
2023/04/18 01:11:05;;;;;;;2.60;0.73;;;24.10;99.90;;;;;;5096044;28;20187;-74
2023/04/18 01:13:33;;;;;;;6.83;1.40;;;24.00;99.90;;;;;;5094815;28;20229;-75
2023/04/18 01:16:00;;;;;;;3.43;0.97;;;24.70;99.90;;;;;;5097703;28;20183;-76
2023/04/18 01:18:30;;;;;;;3.10;1.00;;;25.00;99.90;;;;;;5096143;28;20218;-72
2023/04/18 01:20:59;;;;;;;5.60;1.10;;;25.30;99.90;;;;;;5106479;28;20222;-71
2023/04/18 01:23:27;;;;;;;4.37;1.00;;;26.60;99.90;;;;;;5106888;28;20190;-71
2023/04/18 01:25:55;;;;;;;5.00;0.90;;;27.10;99.90;;;;;;5114609;28;20179;-72
2023/04/18 01:28:26;;;;;;;4.60;0.90;;;26.90;99.90;;;;;;5114354;28;20182;-73
2023/04/18 01:30:54;;;;;;;3.43;1.00;;;26.10;99.90;;;;;;5114700;28;20194;-70
2023/04/18 01:33:22;;;;;;;4.20;0.80;;;25.60;99.90;;;;;;5114470;28;20174;-72
2023/04/18 01:35:56;;;;;;;4.10;1.13;;;25.90;99.90;;;;;;5099060;28;20192;-71
2023/04/18 01:38:24;;;;;;;6.80;1.30;;;26.50;99.90;;;;;;5113830;28;20192;-73
2023/04/18 01:40:52;;;;;;;9.30;1.20;;;26.60;99.90;;;;;;5113912;28;20259;-73
2023/04/18 01:43:19;;;;;;;8.20;1.30;;;26.20;99.90;;;;;;5108071;28;20218;-71
2023/04/18 01:45:47;;;;;;;5.83;1.13;;;26.20;99.90;;;;;;5094178;28;20175;-69
2023/04/18 01:48:15;;;;;;;4.73;1.00;;;26.30;99.90;;;;;;5093753;28;20171;-68
2023/04/18 01:50:43;;;;;;;7.97;1.30;;;26.10;99.90;;;;;;5094062;28;20171;-70
2023/04/18 01:53:10;;;;;;;3.03;1.13;;;26.20;99.90;;;;;;5107992;28;20199;-70
2023/04/18 01:55:38;;;;;;;4.20;1.60;;;26.20;99.90;;;;;;5098157;28;20186;-72
2023/04/18 01:58:06;;;;;;;3.17;1.00;;;25.80;99.90;;;;;;5103201;28;20233;-69
2023/04/18 02:00:34;;;;;;;5.73;1.07;;;25.50;99.90;;;;;;5114233;28;20224;-73
2023/04/18 02:03:01;;;;;;;5.50;1.23;;;25.40;99.90;;;;;;5113735;28;20237;-71
2023/04/18 02:05:29;;;;;;;5.50;1.17;;;25.20;99.90;;;;;;5114284;28;20167;-72
2023/04/18 02:07:58;;;;;;;5.40;1.60;;;25.20;99.90;;;;;;5105509;28;20580;-73
2023/04/18 02:10:25;;;;;;;4.67;1.30;;;25.10;99.90;;;;;;5092508;28;20592;-71
2023/04/18 02:12:53;;;;;;;5.30;1.53;;;24.80;99.90;;;;;;5093738;28;20634;-72
2023/04/18 02:15:23;;;;;;;2.80;1.10;;;25.10;99.90;;;;;;5093536;28;20218;-70
2023/04/18 02:17:50;;;;;;;5.17;1.30;;;25.20;99.90;;;;;;5094201;28;20190;-71
2023/04/18 02:20:18;;;;;;;4.60;1.00;;;24.70;99.90;;;;;;5104563;28;20216;-72
2023/04/18 02:22:47;;;;;;;6.63;1.00;;;23.90;99.90;;;;;;5093277;28;20305;-71
2023/04/18 02:25:14;;;;;;;4.77;1.30;;;23.50;99.90;;;;;;5093110;28;20187;-73
2023/04/18 02:27:42;;;;;;;5.60;1.30;;;23.70;99.90;;;;;;5097941;28;20189;-72
2023/04/18 02:30:10;;;;;;;3.47;1.23;;;24.00;99.90;;;;;;5113550;28;20644;-72
2023/04/18 02:32:38;;;;;;;8.83;1.50;;;24.30;99.90;;;;;;5112877;28;20170;-71
2023/04/18 02:35:06;;;;;;;6.97;1.40;;;24.40;99.90;;;;;;5113573;28;20633;-72
2023/04/18 02:37:34;;;;;;;7.23;1.50;;;24.60;99.90;;;;;;5113149;28;20661;-72
2023/04/18 02:40:03;;;;;;;3.63;1.30;;;24.60;99.90;;;;;;5097380;28;20575;-69
2023/04/18 02:42:32;;;;;;;4.63;1.27;;;24.50;99.90;;;;;;5092961;28;20243;-72
2023/04/18 02:44:59;;;;;;;4.17;1.37;;;24.60;99.90;;;;;;5106908;28;20178;-71
2023/04/18 02:47:27;;;;;;;10.47;1.60;;;24.50;99.90;;;;;;5112638;28;20170;-71
2023/04/18 02:49:55;;;;;;;11.70;1.90;;;24.80;99.90;;;;;;5107845;28;20530;-73
2023/04/18 02:52:24;;;;;;;4.93;1.20;;;25.50;99.90;;;;;;5093074;28;20171;-73
2023/04/18 02:54:52;;;;;;;6.53;1.50;;;26.00;99.90;;;;;;5092550;28;20178;-72
2023/04/18 03:00:42;;;;;;;7.47;1.47;;;26.70;99.90;;;;;;5091427;28;20206;-72
2023/04/18 03:03:10;;;;;;;5.60;1.20;;;25.90;99.90;;;;;;5091577;28;20642;-72
2023/04/18 03:05:38;;;;;;;5.73;1.00;;;25.50;99.90;;;;;;5092707;28;20234;-72
2023/04/18 03:08:06;;;;;;;5.13;1.27;;;24.90;99.90;;;;;;5094689;28;20656;-72
2023/04/18 03:10:34;;;;;;;9.43;1.57;;;24.40;99.90;;;;;;5104523;28;20179;-72
2023/04/18 03:13:02;;;;;;;4.17;1.17;;;24.40;99.90;;;;;;5112908;28;20657;-72
2023/04/18 03:15:32;;;;;;;7.23;1.43;;;24.60;99.90;;;;;;5112028;28;20185;-72
2023/04/18 03:18:00;;;;;;;7.77;1.63;;;24.60;99.90;;;;;;5112242;28;20186;-71
2023/04/18 03:20:28;;;;;;;6.20;1.50;;;24.60;99.90;;;;;;5111994;28;20217;-71
2023/04/18 03:22:56;;;;;;;4.93;1.17;;;24.60;99.90;;;;;;5107477;28;20226;-72
2023/04/18 03:25:23;;;;;;;4.87;1.37;;;24.70;99.90;;;;;;5102660;28;20551;-72
2023/04/18 03:27:51;;;;;;;5.43;1.33;;;24.80;99.90;;;;;;5091962;28;20187;-72
2023/04/18 03:30:19;;;;;;;6.80;1.40;;;25.10;99.90;;;;;;5090467;28;20642;-72
2023/04/18 03:32:47;;;;;;;4.50;1.57;;;25.40;99.90;;;;;;5092100;28;20187;-71
2023/04/18 03:35:16;;;;;;;6.30;1.13;;;25.40;99.90;;;;;;5092095;28;20540;-72
2023/04/18 03:37:43;;;;;;;5.90;1.03;;;25.70;99.90;;;;;;5091542;28;20198;-72
2023/04/18 03:40:11;;;;;;;6.50;1.30;;;25.80;99.90;;;;;;5091903;28;20648;-72
2023/04/18 03:42:39;;;;;;;7.03;1.20;;;25.60;99.90;;;;;;5091691;28;20535;-72
2023/04/18 03:45:07;;;;;;;7.27;1.17;;;25.50;99.90;;;;;;5108637;28;20184;-69
2023/04/18 03:47:36;;;;;;;8.37;1.13;;;25.60;99.90;;;;;;5112109;28;20187;-70
2023/04/18 03:50:04;;;;;;;6.17;1.60;;;25.50;99.90;;;;;;5097052;28;20187;-70
2023/04/18 03:52:32;;;;;;;6.70;1.23;;;25.20;99.90;;;;;;5091323;28;20175;-72
2023/04/18 03:55:00;;;;;;;7.73;1.50;;;25.00;99.90;;;;;;5091790;28;20638;-71
2023/04/18 03:57:28;;;;;;;4.47;1.13;;;25.10;99.90;;;;;;5091709;28;20176;-71
2023/04/18 03:59:55;;;;;;;6.03;1.43;;;25.00;99.90;;;;;;5091080;28;20187;-71
2023/04/18 04:02:23;;;;;;;11.47;1.53;;;25.20;99.90;;;;;;5092113;28;20662;-71
2023/04/18 04:04:51;;;;;;;5.13;1.27;;;25.40;99.90;;;;;;5091690;28;20179;-71
2023/04/18 04:07:19;;;;;;;7.43;1.27;;;25.30;99.90;;;;;;5091280;28;20175;-72
2023/04/18 04:09:46;;;;;;;5.47;1.13;;;25.00;99.90;;;;;;5091726;28;20179;-71
2023/04/18 04:12:14;;;;;;;4.50;1.27;;;24.90;99.90;;;;;;5107193;28;20686;-72
2023/04/18 04:14:42;;;;;;;9.03;1.47;;;25.20;99.90;;;;;;5107608;28;20182;-69
2023/04/18 04:17:10;;;;;;;4.80;1.20;;;25.00;99.90;;;;;;5091573;28;20244;-69
2023/04/18 04:19:38;;;;;;;9.43;1.30;;;24.70;99.90;;;;;;5091321;28;20186;-70
2023/04/18 04:22:05;;;;;;;9.80;1.20;;;24.40;99.90;;;;;;5104194;28;20233;-70
2023/04/18 04:27:55;;;;;;;4.47;1.10;;;24.10;99.90;;;;;;5106079;28;20251;-70
2023/04/18 04:30:23;;;;;;;5.40;1.40;;;23.90;99.90;;;;;;5111138;28;20640;-71
2023/04/18 04:32:52;;;;;;;7.30;1.20;;;23.80;99.90;;;;;;5113905;28;20182;-71
2023/04/18 04:38:43;;;;;;;5.30;1.43;;;23.50;99.90;;;;;;5094800;28;20546;-71
2023/04/18 04:41:11;;;;;;;7.17;1.57;;;23.30;99.90;;;;;;5095099;28;20692;-71
2023/04/18 04:43:40;;;;;;;6.10;1.43;;;23.40;99.90;;;;;;5114855;28;20194;-71
2023/04/18 04:46:08;;;;;;;7.27;1.40;;;23.40;99.90;;;;;;5115683;28;20622;-69
2023/04/18 04:48:35;;;;;;;5.60;1.67;;;23.20;99.90;;;;;;5104197;28;20560;-69
2023/04/18 04:51:04;;;;;;;4.63;1.30;;;23.10;99.90;;;;;;5094660;28;20186;-70
2023/04/18 04:53:32;;;;;;;4.87;1.13;;;22.90;99.90;;;;;;5095061;28;20630;-70
2023/04/18 04:55:59;;;;;;;11.10;2.10;;;22.90;99.90;;;;;;5095111;28;20554;-71
2023/04/18 04:58:27;;;;;;;5.40;1.20;;;23.10;99.90;;;;;;5094353;28;20557;-70
2023/04/18 05:00:55;;;;;;;8.50;1.53;;;23.10;99.90;;;;;;5100442;28;20202;-72
2023/04/18 05:03:23;;;;;;;6.90;1.53;;;23.10;99.90;;;;;;5115234;28;20173;-71
2023/04/18 05:05:50;;;;;;;11.33;1.47;;;23.10;99.90;;;;;;5114913;28;20235;-69
2023/04/18 05:08:18;;;;;;;5.63;1.37;;;23.10;99.90;;;;;;5106829;27;20180;-72
2023/04/18 05:10:48;;;;;;;4.63;1.30;;;23.10;99.90;;;;;;5094745;28;20196;-70
2023/04/18 05:13:16;;;;;;;5.93;1.87;;;23.20;99.90;;;;;;5094924;28;20182;-71
2023/04/18 05:15:47;;;;;;;7.83;1.50;;;23.10;99.90;;;;;;5109616;28;20175;-70
2023/04/18 05:18:15;;;;;;;10.60;1.80;;;23.10;99.90;;;;;;5112898;28;20174;-71
2023/04/18 05:20:43;;;;;;;5.53;1.17;;;23.10;99.90;;;;;;5094049;28;20228;-70
2023/04/18 05:23:10;;;;;;;6.83;1.30;;;23.00;99.90;;;;;;5094464;28;20570;-71
2023/04/18 05:25:38;;;;;;;5.20;1.50;;;23.00;99.90;;;;;;5094575;28;20178;-71
2023/04/18 05:28:07;;;;;;;6.17;1.37;;;23.10;99.90;;;;;;5103035;28;20189;-71
2023/04/18 05:30:35;;;;;;;5.17;1.53;;;23.00;99.90;;;;;;5114600;28;20625;-71
2023/04/18 05:33:02;;;;;;;8.67;1.20;;;23.10;99.90;;;;;;5107784;28;20181;-72
2023/04/18 05:35:30;;;;;;;6.30;1.80;;;23.00;99.90;;;;;;5113291;28;20666;-70
2023/04/18 05:37:59;;;;;;;5.37;1.00;;;23.20;99.90;;;;;;5113593;28;20190;-71
2023/04/18 05:40:28;;;;;;;8.83;1.10;;;23.30;99.90;;;;;;5098340;28;20226;-74
2023/04/18 05:42:56;;;;;;;6.83;1.57;;;23.30;99.90;;;;;;5109256;28;20291;-75
2023/04/18 05:45:24;;;;;;;7.00;1.40;;;23.40;99.90;;;;;;5094021;28;20278;-77
2023/04/18 05:47:52;;;;;;;6.87;1.60;;;23.30;99.90;;;;;;5093808;28;20558;-75
2023/04/18 05:50:20;;;;;;;8.80;1.57;;;23.20;99.90;;;;;;5094214;28;20195;-74
2023/04/18 05:52:48;;;;;;;4.97;1.37;;;23.10;99.90;;;;;;5099573;28;20645;-75
2023/04/18 05:55:16;;;;;;;5.07;1.27;;;23.10;99.90;;;;;;5094800;28;20175;-74
2023/04/18 05:57:43;;;;;;;8.77;1.50;;;23.30;99.90;;;;;;5098326;28;20696;-75
2023/04/18 06:00:12;;;;;;;6.47;1.57;;;23.40;99.90;;;;;;5093691;28;20208;-76
2023/04/18 06:02:39;;;;;;;4.87;1.37;;;23.30;99.90;;;;;;5097714;28;20294;-76
2023/04/18 06:05:08;;;;;;;7.37;1.27;;;23.30;99.90;;;;;;5113307;28;20190;-77
2023/04/18 06:07:35;;;;;;;4.23;1.20;;;23.30;99.90;;;;;;5105727;28;20190;-77
2023/04/18 06:10:06;;;;;;;4.43;1.07;;;23.20;99.90;;;;;;5093642;28;20550;-76
2023/04/18 06:12:34;;;;;;;5.33;1.03;;;23.10;99.90;;;;;;5103496;28;20178;-78
2023/04/18 06:15:04;;;;;;;2.67;0.90;;;22.90;99.90;;;;;;5113127;28;20214;-77
2023/04/18 06:17:33;;;;;;;5.27;1.40;;;22.80;99.90;;;;;;5111939;28;20179;-77
2023/04/18 06:20:02;;;;;;;5.73;1.30;;;22.70;99.90;;;;;;5099430;28;20210;-75
2023/04/18 06:22:30;;;;;;;4.30;1.13;;;22.60;99.90;;;;;;5094189;28;20709;-76
2023/04/18 06:24:57;;;;;;;5.27;1.37;;;22.60;99.90;;;;;;5096996;28;20183;-74
2023/04/18 06:27:26;;;;;;;6.07;1.30;;;22.40;99.90;;;;;;5110553;28;20192;-76
2023/04/18 06:29:54;;;;;;;10.53;1.47;;;22.30;99.90;;;;;;5105917;28;20274;-76
2023/04/18 06:32:22;;;;;;;7.90;1.77;;;22.20;99.90;;;;;;5094314;28;20587;-72
2023/04/18 06:34:52;;;;;;;7.03;1.87;;;22.00;99.90;;;;;;5101591;28;20629;-70
2023/04/18 06:37:20;;;;;;;8.97;1.30;;;21.90;99.90;;;;;;5113852;28;20200;-72
2023/04/18 06:39:48;;;;;;;7.17;1.87;;;21.70;99.90;;;;;;5096544;28;20187;-75
2023/04/18 06:42:16;;;;;;;5.90;1.53;;;21.60;99.90;;;;;;5092233;28;20283;-75
2023/04/18 06:44:43;;;;;;;7.30;1.40;;;21.60;99.90;;;;;;5106142;28;20244;-75
2023/04/18 06:47:11;;;;;;;9.53;1.37;;;21.50;99.90;;;;;;5112712;28;20186;-69
2023/04/18 06:49:39;;;;;;;8.60;1.50;;;21.50;99.90;;;;;;5097677;28;20208;-70
2023/04/18 06:52:07;;;;;;;7.13;1.60;;;21.40;99.90;;;;;;5092658;28;20183;-72
2023/04/18 06:54:35;;;;;;;5.20;1.47;;;21.30;99.90;;;;;;5099233;28;20183;-72
2023/04/18 06:57:03;;;;;;;5.27;1.80;;;21.20;99.90;;;;;;5112420;28;20200;-72
2023/04/18 06:59:30;;;;;;;7.60;1.80;;;21.10;99.90;;;;;;5103836;28;20182;-73
2023/04/18 07:01:58;;;;;;;6.47;1.83;;;21.00;99.90;;;;;;5097896;28;20217;-77
2023/04/18 07:04:26;;;;;;;5.07;1.90;;;20.80;99.90;;;;;;5113014;28;20196;-77
2023/04/18 07:06:54;;;;;;;6.63;1.87;;;20.70;99.90;;;;;;5113058;28;20180;-78
2023/04/18 07:09:22;;;;;;;5.07;1.20;;;20.70;99.90;;;;;;5108472;28;20197;-79
2023/04/18 07:11:52;;;;;;;3.67;1.33;;;20.70;99.90;;;;;;5106051;28;20604;-76
2023/04/18 07:14:24;;;;;;;5.70;1.83;;;20.70;99.90;;;;;;5092638;28;20208;-73
2023/04/18 07:16:52;;;;;;;8.10;1.80;;;20.60;99.90;;;;;;5092433;28;20246;-77
2023/04/18 07:19:19;;;;;;;3.63;1.47;;;20.50;99.90;;;;;;5091984;28;20548;-78
2023/04/18 07:21:47;;;;;;;6.60;1.60;;;20.40;99.90;;;;;;5093091;28;20254;-74
2023/04/18 07:24:15;;;;;;;8.83;1.50;;;20.40;99.90;;;;;;5104665;28;20230;-77
2023/04/18 07:30:05;;;;;;;9.63;1.80;;;20.30;99.90;;;;;;5111925;28;20180;-78
2023/04/18 07:32:32;;;;;;;7.83;1.90;;;20.10;99.90;;;;;;5102077;28;20183;-74
2023/04/18 07:35:00;;;;;;;9.10;2.03;;;20.00;99.90;;;;;;5092171;28;20179;-73
2023/04/18 07:37:27;;;;;;;5.03;1.70;;;19.80;99.90;;;;;;5092017;28;20175;-79
2023/04/18 07:39:54;;;;;;;5.73;1.87;;;19.70;99.90;;;;;;5091710;28;20176;-72
2023/04/18 07:42:22;;;;;;;7.93;1.97;;;19.70;99.90;;;;;;5092028;28;20222;-76
2023/04/18 07:44:49;;;;;;;4.60;1.67;;;19.70;99.90;;;;;;5092030;28;20186;-76
2023/04/18 07:47:17;;;;;;;6.57;1.40;;;19.70;99.90;;;;;;5091510;28;20206;-71
2023/04/18 07:49:45;;;;;;;7.77;2.17;;;19.60;99.90;;;;;;5091844;28;20186;-75
2023/04/18 07:52:12;;;;;;;8.57;1.47;;;19.60;99.90;;;;;;5090508;28;20604;-73
2023/04/18 07:54:40;;;;;;;4.03;1.60;;;19.50;99.90;;;;;;5090086;28;20676;-72
2023/04/18 07:57:07;;;;;;;8.23;1.40;;;19.30;99.90;;;;;;5099309;28;20186;-74
2023/04/18 07:59:34;;;;;;;8.27;1.60;;;19.20;99.90;;;;;;5107640;28;20179;-73
2023/04/18 08:02:02;;;;;;;4.20;1.90;;;19.00;99.90;;;;;;5105911;28;20261;-74
2023/04/18 08:04:30;;;;;;;9.90;1.57;;;18.80;99.90;;;;;;5102422;28;20174;-70
2023/04/18 08:06:57;;;;;;;5.97;1.33;;;18.60;99.90;;;;;;5114938;28;20190;-74
2023/04/18 08:09:24;;;;;;;7.50;1.83;;;18.50;99.90;;;;;;5116032;28;20646;-74
2023/04/18 08:15:14;;;;;;;4.00;1.50;;;18.20;99.90;;;;;;5115650;28;20679;-74
2023/04/18 08:17:47;;;;;;;9.97;2.10;;;18.10;99.90;;;;;;5100208;28;20290;-69
2023/04/18 08:20:15;;;;;;;7.60;1.83;;;18.00;99.90;;;;;;5096035;28;20171;-74
2023/04/18 08:22:42;;;;;;;7.60;1.70;;;17.90;99.90;;;;;;5095305;28;20234;-74
2023/04/18 08:25:10;;;;;;;6.30;2.17;;;17.80;99.90;;;;;;5095090;28;20174;-73
2023/04/18 08:27:37;;;;;;;8.63;2.50;;;17.70;99.90;;;;;;5095266;28;20673;-77
2023/04/18 08:30:05;;;;;;;6.53;2.07;;;17.70;99.90;;;;;;5095428;28;20637;-75
2023/04/18 08:32:34;;;;;;;6.63;2.00;;;17.60;99.90;;;;;;5095024;28;20646;-74
2023/04/18 08:35:02;;;;;;;11.67;2.03;;;17.50;99.90;;;;;;5095200;28;20178;-77
2023/04/18 08:37:31;;;;;;;8.63;1.73;;;17.50;99.90;;;;;;5095280;28;20194;-71
2023/04/18 08:39:58;;;;;;;7.63;1.90;;;17.40;99.90;;;;;;5094658;28;20172;-75
2023/04/18 08:42:26;;;;;;;7.17;1.50;;;17.40;99.90;;;;;;5095273;28;20332;-74
2023/04/18 08:44:54;;;;;;;7.63;2.10;;;17.30;99.90;;;;;;5095314;28;20176;-74
2023/04/18 08:47:22;;;;;;;8.03;1.83;;;17.20;99.90;;;;;;5094577;28;20179;-74
2023/04/18 08:49:51;;;;;;;6.17;2.23;;;17.10;99.90;;;;;;5095132;28;20175;-76
2023/04/18 08:52:20;;;;;;;11.00;2.30;;;17.10;99.90;;;;;;5095060;28;20179;-73
2023/04/18 08:54:48;;;;;;;6.87;2.03;;;17.00;99.90;;;;;;5094940;28;20213;-71
2023/04/18 08:57:22;;;;;;;14.20;2.33;;;17.00;99.90;;;;;;5106294;28;20183;-73
2023/04/18 08:59:49;;;;;;;11.73;2.40;;;17.00;99.90;;;;;;5116598;28;20254;-75
2023/04/18 09:02:18;;;;;;;7.37;1.93;;;17.00;99.90;;;;;;5116413;27;20581;-72
2023/04/18 09:04:51;;;;;;;10.47;2.57;;;16.90;99.90;;;;;;5116522;27;20167;-72
2023/04/18 09:10:41;;;;;;;10.23;2.00;;;16.80;99.90;;;;;;5095434;28;20222;-75
2023/04/18 09:13:09;;;;;;;10.93;3.13;;;16.80;99.90;;;;;;5096005;28;20638;-73
2023/04/18 09:15:36;;;;;;;10.90;2.00;;;16.80;99.90;;;;;;5095756;28;20171;-73
2023/04/18 09:18:09;;;;;;;9.50;2.50;;;16.70;99.90;;;;;;5095218;28;20176;-74
2023/04/18 09:20:40;;;;;;;5.93;2.33;;;16.70;99.90;;;;;;5095974;28;20680;-75
2023/04/18 09:23:10;;;;;;;8.43;2.60;;;16.70;99.90;;;;;;5095529;28;20717;-75
2023/04/18 09:25:46;;;;;;;7.03;2.37;;;16.60;99.90;;;;;;5095987;28;20213;-73
2023/04/18 09:28:28;;;;;;;8.03;2.20;;;16.60;99.90;;;;;;5095709;28;20175;-74
2023/04/18 09:30:58;;;;;;;9.53;2.10;;;16.50;99.90;;;;;;5095459;28;20185;-75
2023/04/18 09:33:32;;;;;;;10.40;2.33;;;16.50;99.90;;;;;;5095491;28;20212;-74
2023/04/18 09:36:20;;;;;;;8.80;2.60;;;16.40;99.90;;;;;;5095432;28;20650;-72
2023/04/18 09:38:48;;;;;;;8.57;2.40;;;16.40;99.90;;;;;;5095183;28;20536;-74
2023/04/18 09:41:17;;;;;;;5.07;2.00;;;16.30;99.90;;;;;;5094287;28;20209;-73
2023/04/18 09:43:45;;;;;;;9.13;2.50;;;16.30;99.90;;;;;;5094766;28;20270;-70
2023/04/18 09:46:16;;;;;;;7.17;2.03;;;16.20;99.90;;;;;;5094489;28;20183;-71
2023/04/18 09:48:43;;;;;;;9.83;2.57;;;16.10;99.90;;;;;;5094451;28;20203;-74
2023/04/18 09:51:15;;;;;;;7.80;2.20;;;16.10;99.90;;;;;;5094698;28;20176;-75
2023/04/18 09:53:46;;;;;;;8.40;1.70;;;16.10;99.90;;;;;;5094725;28;20175;-73
2023/04/18 09:56:25;;;;;;;8.53;2.53;;;16.00;99.90;;;;;;5094732;28;20213;-73
2023/04/18 09:59:02;;;;;;;8.07;2.40;;;15.90;99.90;;;;;;5094121;28;20209;-74
2023/04/18 10:01:30;;;;;;;7.03;2.00;;;15.90;99.90;;;;;;5094380;28;20272;-75
2023/04/18 10:03:59;;;;;;;9.47;2.53;;;16.00;99.90;;;;;;5094399;28;20274;-73
2023/04/18 10:06:27;;;;;;;5.37;2.50;;;16.00;99.90;;;;;;5094304;28;20186;-73
2023/04/18 10:08:55;;;;;;;13.03;2.63;;;16.00;99.90;;;;;;5094273;28;20179;-74
2023/04/18 10:11:23;;;;;;;6.20;2.30;;;15.90;99.90;;;;;;5094020;28;20236;-74
2023/04/18 10:13:55;;;;;;;6.23;2.33;;;15.90;99.90;;;;;;5094125;28;20183;-74
2023/04/18 10:16:23;;;;;;;5.57;2.53;;;15.80;99.90;;;;;;5094208;28;20546;-74
2023/04/18 10:18:50;;;;;;;8.40;2.73;;;15.70;99.90;;;;;;5094192;28;20616;-73
2023/04/18 10:21:18;;;;;;;10.10;2.93;;;15.70;99.90;;;;;;5093619;28;20239;-74
2023/04/18 10:23:47;;;;;;;8.47;2.87;;;15.70;99.90;;;;;;5094314;28;20183;-73
2023/04/18 10:26:15;;;;;;;8.30;3.00;;;15.60;99.90;;;;;;5094019;28;20182;-72
2023/04/18 10:28:55;;;;;;;7.47;2.50;;;15.60;99.90;;;;;;5093560;28;20178;-72
2023/04/18 10:31:25;;;;;;;5.30;2.27;;;15.50;99.90;;;;;;5093254;28;20178;-73
2023/04/18 10:34:00;;;;;;;10.87;2.63;;;15.50;99.90;;;;;;5093764;28;20250;-74
2023/04/18 10:36:27;;;;;;;10.07;3.87;;;15.60;99.90;;;;;;5093959;28;20183;-73
2023/04/18 10:38:59;;;;;;;11.20;2.80;;;15.60;99.90;;;;;;5093888;28;20658;-76
2023/04/18 10:41:31;;;;;;;10.73;2.40;;;15.50;99.90;;;;;;5093781;28;20228;-69
2023/04/18 10:44:08;;;;;;;10.53;2.30;;;15.50;99.90;;;;;;5093699;28;20207;-75
2023/04/18 10:46:37;;;;;;;16.73;3.00;;;15.40;99.90;;;;;;5093678;28;20163;-73
2023/04/18 10:49:22;;;;;;;14.20;2.60;;;15.40;99.90;;;;;;5093349;28;20182;-74
2023/04/18 10:51:55;;;;;;;15.27;2.57;;;15.40;99.90;;;;;;5107316;28;20197;-73
2023/04/18 10:54:47;;;;;;;11.30;3.10;;;15.40;99.90;;;;;;5093719;28;20211;-75
2023/04/18 10:57:14;;;;;;;14.00;3.60;;;15.30;99.90;;;;;;5093216;28;20267;-74
2023/04/18 10:59:43;;;;;;;8.90;2.93;;;15.30;99.90;;;;;;5093022;28;20172;-73
2023/04/18 11:02:31;;;;;;;7.43;2.83;;;15.30;99.90;;;;;;5093463;28;20252;-73
2023/04/18 11:05:06;;;;;;;11.17;2.80;;;15.30;99.90;;;;;;5093540;28;20175;-73
2023/04/18 11:07:37;;;;;;;7.63;3.10;;;15.20;99.90;;;;;;5104886;28;20189;-74
2023/04/18 11:10:06;;;;;;;10.83;2.67;;;15.10;99.90;;;;;;5093315;28;20175;-74
2023/04/18 11:12:36;;;;;;;15.30;4.00;;;15.10;99.90;;;;;;5092896;28;20236;-74
2023/04/18 11:15:10;;;;;;;7.87;2.70;;;15.00;99.90;;;;;;5093462;28;20576;-75
2023/04/18 11:17:39;;;;;;;8.30;3.03;;;15.10;99.90;;;;;;5093303;28;20166;-73
2023/04/18 11:20:12;;;;;;;6.27;2.90;;;15.00;99.90;;;;;;5093220;28;20638;-74
2023/04/18 11:22:46;;;;;;;11.03;3.60;;;15.00;99.90;;;;;;5092584;28;20329;-73
2023/04/18 11:25:21;;;;;;;5.73;2.73;;;15.00;99.90;;;;;;5093197;28;20206;-73
2023/04/18 11:27:54;;;;;;;6.67;2.63;;;15.00;99.90;;;;;;5092974;28;20218;-72
2023/04/18 11:30:21;;;;;;;10.37;3.00;;;14.90;99.90;;;;;;5092842;28;20299;-75
2023/04/18 11:32:50;;;;;;;7.87;2.77;;;14.90;99.90;;;;;;5092453;28;20185;-72
2023/04/18 11:35:18;;;;;;;6.80;2.70;;;14.90;99.90;;;;;;5105556;28;20174;-71
2023/04/18 11:37:45;;;;;;;13.97;3.73;;;14.90;99.90;;;;;;5094197;28;20186;-74
2023/04/18 11:40:14;;;;;;;8.60;3.00;;;14.90;99.90;;;;;;5092959;28;20171;-73
2023/04/18 11:42:41;;;;;;;9.53;2.90;;;14.90;99.90;;;;;;5092063;28;20207;-74
2023/04/18 11:45:13;;;;;;;8.77;3.17;;;14.80;99.90;;;;;;5092857;28;20189;-74
2023/04/18 11:47:42;;;;;;;11.23;3.30;;;14.80;99.90;;;;;;5092771;28;20210;-76
2023/04/18 11:50:12;;;;;;;6.77;3.30;;;14.80;99.90;;;;;;5092959;28;20710;-77
2023/04/18 11:52:41;;;;;;;12.63;2.90;;;14.70;99.90;;;;;;5109474;28;20194;-76
2023/04/18 11:55:26;;;;;;;5.83;2.63;;;14.70;99.90;;;;;;5111939;28;20239;-74
2023/04/18 11:57:55;;;;;;;6.73;3.20;;;14.70;99.90;;;;;;5111538;27;20265;-72
2023/04/18 12:00:37;;;;;;;11.57;2.83;;;14.70;99.90;;;;;;5094103;28;20233;-75
2023/04/18 12:03:08;;;;;;;10.73;3.60;;;14.70;99.90;;;;;;5108558;28;20606;-74
2023/04/18 12:05:37;;;;;;;12.43;3.53;;;14.60;99.90;;;;;;5112840;28;20231;-76
2023/04/18 12:08:12;;;;;;;7.47;3.40;;;14.60;99.90;;;;;;5096950;28;20190;-74
2023/04/18 12:10:47;;;;;;;13.03;4.47;;;14.50;99.90;;;;;;5092565;28;20181;-74
2023/04/18 12:13:14;;;;;;;12.47;4.27;;;14.50;99.90;;;;;;5092503;28;20551;-73
2023/04/18 12:15:44;;;;;;;9.23;3.97;;;14.50;99.90;;;;;;5099454;28;20694;-76
2023/04/18 12:18:14;;;;;;;10.70;3.40;;;14.40;99.90;;;;;;5111982;28;20185;-76
2023/04/18 12:20:46;;;;;;;12.60;3.90;;;14.50;99.90;;;;;;5106057;28;20182;-76
2023/04/18 12:23:34;;;;;;;8.80;3.33;;;14.40;99.90;;;;;;5092149;28;20222;-76
2023/04/18 12:26:07;;;;;;;7.83;3.60;;;14.40;99.90;;;;;;5105397;28;20226;-76
2023/04/18 12:28:36;;;;;;;8.77;3.50;;;14.30;99.90;;;;;;5092426;28;20665;-75
2023/04/18 12:31:07;;;;;;;12.47;3.70;;;14.30;99.90;;;;;;5095542;28;20243;-76
2023/04/18 12:33:35;;;;;;;6.97;3.23;;;14.40;99.90;;;;;;5102165;28;20198;-75
2023/04/18 12:36:09;;;;;;;6.57;3.37;;;14.40;99.90;;;;;;5111297;28;20182;-70
2023/04/18 12:38:37;;;;;;;8.50;3.30;;;14.30;99.90;;;;;;5111647;28;20177;-76
2023/04/18 12:41:05;;;;;;;12.13;3.80;;;14.30;99.90;;;;;;5110417;28;20213;-76
2023/04/18 12:43:32;;;;;;;10.30;2.80;;;14.30;99.90;;;;;;5111572;28;20178;-75
2023/04/18 12:46:00;;;;;;;11.03;3.20;;;14.30;99.90;;;;;;5111611;28;20190;-74
2023/04/18 12:48:28;;;;;;;8.83;3.33;;;14.30;99.90;;;;;;5111410;28;20276;-75
2023/04/18 12:50:56;;;;;;;9.93;3.50;;;14.20;99.90;;;;;;5109803;28;20183;-75
2023/04/18 12:53:24;;;;;;;8.33;3.03;;;14.20;99.90;;;;;;5113985;28;20587;-75
2023/04/18 12:55:52;;;;;;;7.87;3.30;;;14.20;99.90;;;;;;5107174;28;20187;-73
2023/04/18 12:58:22;;;;;;;11.37;3.30;;;14.10;99.90;;;;;;5109447;28;20539;-77
2023/04/18 13:00:50;;;;;;;10.57;3.40;;;14.10;99.90;;;;;;5115398;28;20178;-77
2023/04/18 13:03:18;;;;;;;9.17;3.17;;;14.00;99.90;;;;;;5112378;28;20191;-77
2023/04/18 13:05:46;;;;;;;6.77;2.90;;;14.00;99.90;;;;;;5109088;28;20268;-76
2023/04/18 13:08:14;;;;;;;8.87;2.73;;;14.00;99.90;;;;;;5095671;28;20214;-75
2023/04/18 13:10:41;;;;;;;8.07;3.97;;;14.00;99.90;;;;;;5107987;28;20201;-77
2023/04/18 13:13:09;;;;;;;10.07;2.90;;;14.00;99.90;;;;;;5099921;28;20189;-76
2023/04/18 13:15:37;;;;;;;7.97;3.00;;;13.90;99.90;;;;;;5095461;28;20208;-75